createdAt,value
2019-01-25T00:00:05.385Z,-2.88
2019-01-25T00:04:12.125Z,-2.97
2019-01-25T00:08:17.238Z,-3.13
2019-01-25T00:12:41.461Z,-2.96
2019-01-25T00:16:46.594Z,-3.10
2019-01-25T00:21:03.733Z,-3.01
2019-01-25T00:30:04.737Z,-3.11
2019-01-25T00:38:45.423Z,-2.99
2019-01-25T00:42:50.580Z,-2.93
2019-01-25T00:46:56.084Z,-3.12
2019-01-25T00:51:01.167Z,-3.01
2019-01-25T00:55:25.886Z,-2.93
2019-01-25T00:59:42.849Z,-2.80
2019-01-25T01:03:48.037Z,-2.75
2019-01-25T01:07:53.222Z,-2.78
2019-01-25T01:11:58.320Z,-2.72
2019-01-25T01:29:46.693Z,-2.88
2019-01-25T01:34:10.836Z,-3.01
2019-01-25T01:38:27.595Z,-2.81
2019-01-25T01:42:32.696Z,-2.71
2019-01-25T01:46:37.841Z,-2.74
2019-01-25T01:50:42.986Z,-2.52
2019-01-25T01:54:48.050Z,-2.62
2019-01-25T01:58:53.133Z,-2.57
2019-01-25T02:02:58.289Z,-2.76
2019-01-25T02:07:03.393Z,-2.71
2019-01-25T02:11:08.866Z,-2.63
2019-01-25T02:19:52.814Z,-2.54
2019-01-25T02:23:57.897Z,-2.62
2019-01-25T02:28:02.987Z,-2.56
2019-01-25T02:32:08.088Z,-2.55
2019-01-25T02:36:13.233Z,-2.63
2019-01-25T02:40:20.756Z,-2.50
2019-01-25T02:44:26.165Z,-2.52
2019-01-25T02:48:31.352Z,-2.49
2019-01-25T02:52:39.271Z,-2.66
2019-01-25T02:56:44.277Z,-2.52
2019-01-25T03:00:49.460Z,-2.65
2019-01-25T03:04:54.615Z,-2.43
2019-01-25T03:08:59.729Z,-2.36
2019-01-25T03:13:04.861Z,-2.48
2019-01-25T03:17:09.914Z,-2.35
2019-01-25T03:21:15.141Z,-2.56
2019-01-25T03:25:22.219Z,-2.67
2019-01-25T03:29:27.296Z,-2.25
2019-01-25T03:33:32.486Z,-2.05
2019-01-25T03:37:37.551Z,-2.27
2019-01-25T03:41:42.613Z,-1.93
2019-01-25T03:45:47.662Z,-2.15
2019-01-25T03:49:52.846Z,-2.26
2019-01-25T03:53:57.986Z,-2.09
2019-01-25T04:02:41.670Z,-2.62
2019-01-25T04:06:46.855Z,-2.45
2019-01-25T04:11:04.221Z,-2.07
2019-01-25T04:20:02.185Z,-2.54
2019-01-25T04:24:07.339Z,-2.54
2019-01-25T04:28:12.406Z,-2.48
2019-01-25T04:32:17.497Z,-2.20
2019-01-25T04:36:22.625Z,-2.21
2019-01-25T04:40:27.750Z,-2.50
2019-01-25T04:44:32.870Z,-2.53
2019-01-25T04:48:49.676Z,-2.28
2019-01-25T04:53:15.576Z,-2.28
2019-01-25T04:57:20.651Z,-2.38
2019-01-25T05:01:25.719Z,-2.34
2019-01-25T05:05:30.856Z,-2.13
2019-01-25T05:09:40.157Z,-2.25
2019-01-25T05:13:45.394Z,-2.17
2019-01-25T05:17:54.032Z,-1.99
2019-01-25T05:21:59.117Z,-2.12
2019-01-25T05:26:04.201Z,-2.09
2019-01-25T05:30:11.079Z,-2.03
2019-01-25T05:34:16.283Z,-1.75
2019-01-25T05:38:21.647Z,-1.88
2019-01-25T05:42:45.774Z,-1.82
2019-01-25T05:47:10.322Z,-1.57
2019-01-25T05:51:15.467Z,-1.54
2019-01-25T05:55:21.518Z,-1.74
2019-01-25T05:59:26.686Z,-1.83
2019-01-25T06:03:31.809Z,-2.07
2019-01-25T06:07:36.905Z,-2.11
2019-01-25T06:11:42.025Z,-1.73
2019-01-25T06:15:47.141Z,-1.71
2019-01-25T06:19:52.314Z,-2.06
2019-01-25T06:23:57.429Z,-1.90
2019-01-25T06:28:16.286Z,-1.94
2019-01-25T06:32:21.398Z,-1.78
2019-01-25T06:36:26.487Z,-0.56
2019-01-25T06:40:31.700Z,0.56
2019-01-25T06:44:36.838Z,1.41
2019-01-25T06:48:41.939Z,-0.20
2019-01-25T06:52:47.075Z,0.39
2019-01-25T06:56:52.140Z,0.27
2019-01-25T07:01:16.188Z,-0.50
2019-01-25T07:05:21.311Z,0.24
2019-01-25T07:09:26.402Z,-0.50
2019-01-25T07:13:31.463Z,-0.32
2019-01-25T07:17:55.561Z,-1.25
2019-01-25T07:22:00.745Z,-1.24
2019-01-25T07:26:05.920Z,-1.37
2019-01-25T07:30:30.569Z,-1.40
2019-01-25T07:34:35.641Z,-0.97
2019-01-25T07:38:40.909Z,-0.78
2019-01-25T07:42:45.925Z,-0.49
2019-01-25T07:47:10.483Z,-0.08
2019-01-25T07:51:27.455Z,-0.27
2019-01-25T07:55:32.550Z,-0.61
2019-01-25T07:59:56.653Z,-0.52
2019-01-25T08:04:02.038Z,-0.64
2019-01-25T08:12:23.444Z,0.02
2019-01-25T08:16:28.599Z,-0.55
2019-01-25T08:25:09.820Z,-0.75
2019-01-25T08:29:14.954Z,-0.69
2019-01-25T08:33:20.150Z,-0.94
2019-01-25T08:37:44.377Z,-0.81
2019-01-25T08:41:49.559Z,-0.70
2019-01-25T08:50:34.101Z,-0.77
2019-01-25T08:54:58.316Z,-0.79
2019-01-25T08:59:03.392Z,-0.73
2019-01-25T09:03:08.634Z,-0.54
2019-01-25T09:07:13.720Z,-0.55
2019-01-25T09:11:18.803Z,-0.45
2019-01-25T09:15:26.121Z,-0.47
2019-01-25T09:19:31.228Z,-0.35
2019-01-25T09:23:36.301Z,-0.36
2019-01-25T09:27:41.401Z,-0.31
2019-01-25T09:31:46.468Z,-0.20
2019-01-25T09:35:51.542Z,-0.22
2019-01-25T09:39:56.661Z,-0.21
2019-01-25T09:44:01.751Z,-0.05
2019-01-25T09:48:06.897Z,-0.06
2019-01-25T09:52:12.329Z,0.02
2019-01-25T09:56:17.434Z,-0.04
2019-01-25T10:00:28.550Z,-0.12
2019-01-25T10:04:33.650Z,-0.16
2019-01-25T10:08:38.773Z,-0.24
2019-01-25T10:12:43.827Z,-0.25
2019-01-25T10:16:48.960Z,-0.23
2019-01-25T10:20:54.001Z,-0.05
2019-01-25T10:24:59.077Z,-0.03
2019-01-25T10:29:04.264Z,0.07
2019-01-25T10:33:09.328Z,0.13
2019-01-25T10:37:14.418Z,0.29
2019-01-25T10:41:19.472Z,0.30
2019-01-25T10:45:32.760Z,0.27
2019-01-25T10:49:37.920Z,0.40
2019-01-25T10:53:43.079Z,0.46
2019-01-25T10:57:48.241Z,0.56
2019-01-25T11:01:53.930Z,0.47
2019-01-25T11:05:59.030Z,0.28
2019-01-25T11:10:04.523Z,0.41
2019-01-25T11:14:09.663Z,0.50
2019-01-25T11:18:14.795Z,1.04
2019-01-25T11:22:19.853Z,0.67
2019-01-25T11:26:24.873Z,0.80
2019-01-25T11:30:29.929Z,0.75
2019-01-25T11:34:35.975Z,1.02
2019-01-25T11:38:41.049Z,1.05
2019-01-25T11:42:46.099Z,1.13
2019-01-25T11:46:52.759Z,1.25
2019-01-25T11:50:57.821Z,1.47
2019-01-25T11:55:02.915Z,1.60
2019-01-25T11:59:07.997Z,1.75
2019-01-25T12:07:30.261Z,2.72
2019-01-25T12:15:52.499Z,2.66
2019-01-25T12:19:57.665Z,2.64
2019-01-25T12:24:21.838Z,2.85
2019-01-25T12:28:27.033Z,2.73
2019-01-25T12:32:32.086Z,2.43
2019-01-25T12:36:37.172Z,2.48
2019-01-25T12:40:45.469Z,2.27
2019-01-25T12:44:50.530Z,2.72
2019-01-25T12:48:55.652Z,2.33
2019-01-25T12:53:01.922Z,2.16
2019-01-25T12:57:26.046Z,1.92
2019-01-25T13:01:34.974Z,1.79
2019-01-25T13:14:52.022Z,1.85
2019-01-25T13:18:57.164Z,1.90
2019-01-25T13:23:02.277Z,1.69
2019-01-25T13:31:44.446Z,1.76
2019-01-25T13:36:00.969Z,1.88
2019-01-25T13:40:17.473Z,1.93
2019-01-25T13:44:22.548Z,1.85
2019-01-25T13:48:39.371Z,2.01
2019-01-25T13:52:44.424Z,2.21
2019-01-25T13:56:49.591Z,2.08
2019-01-25T14:01:14.003Z,2.13
2019-01-25T14:05:30.448Z,1.94
2019-01-25T14:14:11.436Z,1.93
2019-01-25T14:18:16.591Z,1.87
2019-01-25T14:22:33.403Z,1.92
2019-01-25T14:26:38.523Z,1.83
2019-01-25T14:30:44.081Z,1.89
2019-01-25T14:35:27.390Z,1.98
2019-01-25T14:39:51.854Z,1.87
2019-01-25T14:43:56.910Z,1.93
2019-01-25T14:48:02.191Z,1.99
2019-01-25T14:52:08.914Z,2.04
2019-01-25T14:56:14.056Z,2.05
2019-01-25T15:00:19.554Z,2.01
2019-01-25T15:04:24.743Z,1.98
2019-01-25T15:08:41.380Z,2.06
2019-01-25T15:13:26.147Z,2.05
2019-01-25T15:17:31.305Z,2.05
2019-01-25T15:21:36.606Z,1.92
2019-01-25T15:25:41.799Z,1.95
2019-01-25T15:29:58.564Z,1.83
2019-01-25T15:34:03.663Z,1.80
2019-01-25T15:38:08.823Z,1.67
2019-01-25T15:42:33.033Z,1.61
2019-01-25T15:46:38.210Z,1.53
2019-01-25T15:59:16.304Z,1.18
2019-01-25T16:03:33.346Z,1.13
2019-01-25T16:07:38.528Z,1.10
2019-01-25T16:16:00.321Z,0.97
2019-01-25T16:20:45.552Z,0.92
2019-01-25T16:24:50.683Z,0.92
2019-01-25T16:28:55.667Z,0.89
2019-01-25T16:33:00.795Z,0.82
2019-01-25T16:37:24.926Z,0.82
2019-01-25T16:41:30.062Z,0.93
2019-01-25T16:45:40.413Z,0.92
2019-01-25T16:54:02.137Z,0.86
2019-01-25T16:58:46.705Z,0.85
2019-01-25T17:02:53.827Z,0.85
2019-01-25T17:11:15.315Z,0.88
2019-01-25T17:15:39.498Z,0.87
2019-01-25T17:19:44.632Z,0.85
2019-01-25T17:23:51.362Z,0.82
2019-01-25T17:27:56.455Z,0.85
2019-01-25T17:32:01.545Z,0.86
2019-01-25T17:36:25.658Z,0.90
2019-01-25T17:40:52.422Z,0.96
2019-01-25T17:44:57.745Z,0.96
2019-01-25T17:53:19.651Z,0.98
2019-01-25T17:57:24.800Z,1.00
2019-01-25T18:01:29.901Z,1.01
2019-01-25T18:05:35.041Z,1.02
2019-01-25T18:09:40.167Z,1.01
2019-01-25T18:13:45.199Z,1.02
2019-01-25T18:18:09.510Z,1.00
2019-01-25T18:22:14.636Z,0.94
2019-01-25T18:26:23.978Z,0.98
2019-01-25T18:30:50.356Z,0.96
2019-01-25T18:39:11.998Z,1.06
2019-01-25T18:43:17.657Z,1.07
2019-01-25T18:47:41.488Z,1.09
2019-01-25T18:51:46.594Z,1.13
2019-01-25T18:55:51.638Z,1.14
2019-01-25T18:59:56.875Z,1.15
2019-01-25T19:04:07.205Z,1.18
2019-01-25T19:08:12.343Z,1.19
2019-01-25T19:12:38.263Z,1.18
2019-01-25T19:16:50.412Z,1.17
2019-01-25T19:25:31.857Z,1.21
2019-01-25T19:29:37.058Z,1.27
2019-01-25T19:33:42.136Z,1.29
2019-01-25T19:37:47.331Z,1.30
2019-01-25T19:42:11.476Z,1.31
2019-01-25T19:46:28.452Z,1.35
2019-01-25T19:50:45.757Z,1.38
2019-01-25T19:54:50.923Z,1.46
2019-01-25T19:58:56.033Z,1.51
2019-01-25T20:03:01.220Z,1.53
2019-01-25T20:07:06.351Z,1.57
2019-01-25T20:11:30.512Z,1.59
2019-01-25T20:15:54.745Z,1.62
2019-01-25T20:20:18.864Z,1.63
2019-01-25T20:24:23.998Z,1.68
2019-01-25T20:32:45.823Z,1.77
2019-01-25T20:36:50.994Z,1.75
2019-01-25T20:41:02.937Z,1.83
2019-01-25T20:45:10.654Z,1.85
2019-01-25T20:53:32.772Z,1.88
2019-01-25T20:57:56.898Z,1.88
2019-01-25T21:02:21.236Z,1.86
2019-01-25T21:06:26.282Z,1.90
2019-01-25T21:10:31.360Z,1.88
2019-01-25T21:14:36.519Z,1.89
2019-01-25T21:18:41.660Z,1.96
2019-01-25T21:22:46.745Z,1.96
2019-01-25T21:27:10.979Z,2.01
2019-01-25T21:31:15.976Z,2.03
2019-01-25T21:35:21.121Z,2.04
2019-01-25T21:39:26.127Z,2.09
2019-01-25T21:43:31.641Z,2.11
2019-01-25T21:51:53.800Z,2.16
2019-01-25T22:04:47.460Z,2.15
2019-01-25T22:08:52.596Z,2.17
2019-01-25T22:12:57.733Z,2.21
2019-01-25T22:17:02.771Z,2.25
2019-01-25T22:21:07.936Z,2.26
2019-01-25T22:25:32.174Z,2.27
2019-01-25T22:29:56.325Z,2.37
2019-01-25T22:34:01.403Z,2.37
2019-01-25T22:38:06.458Z,2.37
2019-01-25T22:42:11.573Z,2.42
2019-01-25T22:46:16.668Z,2.45
2019-01-25T22:50:41.149Z,2.46
2019-01-25T22:59:22.168Z,2.49
2019-01-25T23:04:05.430Z,2.53
2019-01-25T23:08:10.578Z,2.56
2019-01-25T23:12:15.704Z,2.64
2019-01-25T23:16:20.755Z,2.69
2019-01-25T23:20:25.851Z,2.73
2019-01-25T23:24:30.909Z,2.73
2019-01-25T23:28:35.989Z,2.77
2019-01-25T23:32:41.063Z,2.76
2019-01-25T23:36:46.117Z,2.79
2019-01-25T23:40:51.306Z,2.78
2019-01-25T23:44:56.377Z,2.81
2019-01-25T23:49:01.489Z,2.83
2019-01-25T23:53:06.528Z,2.91
2019-01-25T23:57:11.672Z,2.90
